createdAt,value
2018-11-20T00:01:48.626Z,26.30
2018-11-20T00:04:49.409Z,27.47
2018-11-20T00:07:34.656Z,24.17
2018-11-20T00:10:26.469Z,25.07
2018-11-20T00:13:15.452Z,23.10
2018-11-20T00:16:19.561Z,26.90
2018-11-20T00:19:09.096Z,29.93
2018-11-20T00:21:55.817Z,23.67
2018-11-20T00:24:45.919Z,27.50
2018-11-20T00:27:43.969Z,28.47
2018-11-20T00:30:42.327Z,27.17
2018-11-20T00:33:25.850Z,28.73
2018-11-20T00:36:10.073Z,29.33
2018-11-20T00:39:05.102Z,28.57
2018-11-20T00:41:44.889Z,25.80
2018-11-20T00:44:26.154Z,24.10
2018-11-20T00:47:13.408Z,26.30
2018-11-20T00:50:00.861Z,24.30
2018-11-20T00:52:58.018Z,25.80
2018-11-20T00:56:21.366Z,22.80
2018-11-20T00:59:02.050Z,25.00
2018-11-20T01:01:49.543Z,27.87
2018-11-20T01:04:36.896Z,25.80
2018-11-20T01:07:25.860Z,26.27
2018-11-20T01:10:20.897Z,26.37
2018-11-20T01:13:08.043Z,25.27
2018-11-20T01:15:54.307Z,25.63
2018-11-20T01:18:32.427Z,24.47
2018-11-20T01:21:11.222Z,24.30
2018-11-20T01:24:03.388Z,24.57
2018-11-20T01:26:52.380Z,25.20
2018-11-20T01:29:44.348Z,25.30
2018-11-20T01:32:38.973Z,26.30
2018-11-20T01:35:30.825Z,26.10
2018-11-20T01:38:11.270Z,22.67
2018-11-20T01:41:12.157Z,24.83
2018-11-20T01:44:01.118Z,23.47
2018-11-20T01:46:54.412Z,27.13
2018-11-20T01:49:40.894Z,21.60
2018-11-20T01:52:35.754Z,25.70
2018-11-20T01:55:28.274Z,22.77
2018-11-20T01:58:15.634Z,24.67
2018-11-20T02:01:02.775Z,26.03
2018-11-20T02:03:52.398Z,24.87
2018-11-20T02:06:59.552Z,22.50
2018-11-20T02:10:06.383Z,23.70
2018-11-20T02:13:00.878Z,24.10
2018-11-20T02:15:53.556Z,23.93
2018-11-20T02:18:51.485Z,21.43
2018-11-20T02:21:32.596Z,21.70
2018-11-20T02:24:20.009Z,21.57
2018-11-20T02:26:59.360Z,21.47
2018-11-20T02:29:48.417Z,20.57
2018-11-20T02:32:40.330Z,21.53
2018-11-20T02:35:35.496Z,22.53
2018-11-20T02:38:36.129Z,21.43
2018-11-20T02:41:17.464Z,21.20
2018-11-20T02:44:00.690Z,22.77
2018-11-20T02:46:48.202Z,22.70
2018-11-20T02:49:37.433Z,20.37
2018-11-20T02:52:32.902Z,22.07
2018-11-20T02:55:20.205Z,26.43
2018-11-20T02:58:27.152Z,24.73
2018-11-20T03:01:25.329Z,22.20
2018-11-20T03:04:12.168Z,22.13
2018-11-20T03:06:50.462Z,25.57
2018-11-20T03:09:37.712Z,23.10
2018-11-20T03:12:21.159Z,23.83
2018-11-20T03:15:07.380Z,20.67
2018-11-20T05:03:25.157Z,25.53
2018-11-20T06:08:38.300Z,28.53
2018-11-20T07:27:58.635Z,30.03
2018-11-20T07:30:45.280Z,28.83
2018-11-20T07:33:33.004Z,31.70
2018-11-20T07:36:19.936Z,30.57
2018-11-20T07:39:10.809Z,30.43
2018-11-20T07:41:59.202Z,29.83
2018-11-20T07:45:02.193Z,30.67
2018-11-20T07:47:50.385Z,28.63
2018-11-20T07:50:48.109Z,25.50
2018-11-20T07:53:42.397Z,30.93
2018-11-20T07:56:27.592Z,30.80
2018-11-20T07:59:15.727Z,29.87
2018-11-20T08:01:58.076Z,29.73
2018-11-20T08:04:45.004Z,31.17
2018-11-20T08:07:39.195Z,30.27
2018-11-20T08:10:25.883Z,29.37
2018-11-20T08:13:07.868Z,29.67
2018-11-20T08:15:50.478Z,31.13
2018-11-20T08:18:37.105Z,29.47
2018-11-20T08:21:16.881Z,30.47
2018-11-20T08:23:56.671Z,29.77
2018-11-20T08:26:50.832Z,30.77
2018-11-20T08:29:34.445Z,29.50
2018-11-20T08:32:22.633Z,30.53
2018-11-20T08:35:09.477Z,27.93
2018-11-20T08:38:03.610Z,32.50
2018-11-20T08:40:54.740Z,27.90
2018-11-20T08:43:33.048Z,31.10
2018-11-20T08:46:20.830Z,33.87
2018-11-20T08:49:08.988Z,31.63
2018-11-20T08:51:59.943Z,31.73
2018-11-20T08:54:48.091Z,30.83
2018-11-20T08:57:35.999Z,30.97
2018-11-20T09:00:27.310Z,27.70
2018-11-20T09:03:14.099Z,29.40
2018-11-20T09:06:08.018Z,31.80
2018-11-20T09:09:08.004Z,28.13
2018-11-20T09:12:03.534Z,34.10
2018-11-20T09:14:51.698Z,32.10
2018-11-20T09:17:42.808Z,29.43
2018-11-20T09:20:29.628Z,29.33
2018-11-20T09:23:16.262Z,27.20
2018-11-20T09:26:07.010Z,27.73
2018-11-20T09:29:03.195Z,27.83
2018-11-20T09:31:49.770Z,32.90
2018-11-20T09:34:37.184Z,29.60
2018-11-20T09:37:30.845Z,35.13
2018-11-20T09:41:20.947Z,34.53
2018-11-20T09:44:07.137Z,30.30
2018-11-20T09:46:58.034Z,29.97
2018-11-20T09:49:42.821Z,31.60
2018-11-20T09:52:31.025Z,38.33
2018-11-20T09:55:17.952Z,33.80
2018-11-20T09:58:04.528Z,29.93
2018-11-20T10:00:54.317Z,30.10
2018-11-20T10:03:32.433Z,31.03
2018-11-20T10:06:38.790Z,31.30
2018-11-20T10:09:28.361Z,35.83
2018-11-20T10:12:19.180Z,33.63
2018-11-20T10:15:03.681Z,30.60
2018-11-20T10:17:54.982Z,30.27
2018-11-20T10:20:45.914Z,32.93
2018-11-20T10:23:42.957Z,30.57
2018-11-20T10:26:29.586Z,32.30
2018-11-20T10:29:16.495Z,31.70
2018-11-20T10:32:03.684Z,32.90
2018-11-20T10:34:42.184Z,37.27
2018-11-20T10:37:32.906Z,30.10
2018-11-20T10:40:36.085Z,34.37
2018-11-20T10:43:39.047Z,37.47
2018-11-20T10:46:29.916Z,34.83
2018-11-20T10:49:32.577Z,34.27
2018-11-20T10:52:29.681Z,34.47
2018-11-20T10:55:14.484Z,33.70
2018-11-20T10:57:59.231Z,33.70
2018-11-20T11:00:45.794Z,43.17
2018-11-20T11:03:32.551Z,39.63
2018-11-20T11:06:19.434Z,36.33
2018-11-20T11:09:06.606Z,32.93
2018-11-20T11:11:58.881Z,38.20
2018-11-20T11:14:45.478Z,31.13
2018-11-20T11:17:33.496Z,32.33
2018-11-20T11:20:24.898Z,32.57
2018-11-20T11:23:03.982Z,33.30
2018-11-20T11:25:50.693Z,34.87
2018-11-20T11:28:30.713Z,32.87
2018-11-20T11:31:17.433Z,33.40
2018-11-20T11:34:11.655Z,29.67
2018-11-20T11:37:08.653Z,32.33
2018-11-20T11:39:56.775Z,32.13
2018-11-20T11:42:44.970Z,31.77
2018-11-20T11:45:25.103Z,32.87
2018-11-20T11:48:11.764Z,30.70
2018-11-20T11:51:08.495Z,30.53
2018-11-20T11:53:55.301Z,31.50
2018-11-20T11:56:46.382Z,28.00
2018-11-20T11:59:34.566Z,27.97
2018-11-20T12:05:11.639Z,26.93
2018-11-20T12:08:02.882Z,29.00
2018-11-20T12:10:42.071Z,30.47
2018-11-20T12:13:36.244Z,27.63
2018-11-20T12:16:19.462Z,28.23
2018-11-20T12:19:19.798Z,27.07
2018-11-20T12:22:11.094Z,24.00
2018-11-20T12:25:05.255Z,27.17
2018-11-20T12:27:56.574Z,59.83
2018-11-20T12:30:34.804Z,73.67
2018-11-20T12:33:18.828Z,39.07
2018-11-20T12:36:04.438Z,25.33
2018-11-20T12:39:07.476Z,23.33
2018-11-20T12:42:07.662Z,23.83
2018-11-20T12:44:57.379Z,24.80
2018-11-20T12:47:44.218Z,24.83
2018-11-20T12:50:35.340Z,23.13
2018-11-20T12:53:30.815Z,21.70
2018-11-20T12:56:17.703Z,20.53
2018-11-20T12:59:05.751Z,20.13
2018-11-20T13:01:52.187Z,19.30
2018-11-20T13:04:58.518Z,17.47
2018-11-20T13:08:01.566Z,19.60
2018-11-20T13:10:43.842Z,19.80
2018-11-20T13:13:22.682Z,20.00
2018-11-20T13:16:09.419Z,21.10
2018-11-20T13:18:56.278Z,19.67
2018-11-20T13:21:44.929Z,19.07
2018-11-20T13:24:31.182Z,18.73
2018-11-20T13:27:17.631Z,19.83
2018-11-20T13:30:14.870Z,16.40
2018-11-20T13:33:23.445Z,19.13
2018-11-20T13:36:23.416Z,19.23
2018-11-20T13:39:11.848Z,16.40
2018-11-20T13:41:54.143Z,17.77
2018-11-20T13:44:57.283Z,20.50
2018-11-20T13:47:43.838Z,14.60
2018-11-20T13:50:31.911Z,16.47
2018-11-20T13:53:18.910Z,15.87
2018-11-20T13:56:05.913Z,14.70
2018-11-20T13:59:00.271Z,13.87
2018-11-20T14:01:57.840Z,16.00
2018-11-20T14:04:49.028Z,16.57
2018-11-20T14:07:35.740Z,16.30
2018-11-20T14:10:24.798Z,15.83
2018-11-20T14:13:25.106Z,18.83
2018-11-20T14:16:13.870Z,19.87
2018-11-20T14:19:00.872Z,16.90
2018-11-20T14:21:49.200Z,18.30
2018-11-20T14:24:33.923Z,16.70
2018-11-20T14:27:28.201Z,16.93
2018-11-20T14:30:14.928Z,17.70
2018-11-20T14:32:59.539Z,14.90
2018-11-20T14:35:59.542Z,16.77
2018-11-20T14:38:46.435Z,15.40
2018-11-20T14:41:34.782Z,15.80
2018-11-20T14:44:23.086Z,16.43
2018-11-20T14:47:17.215Z,16.90
2018-11-20T14:50:04.121Z,16.57
2018-11-20T14:52:52.345Z,16.70
2018-11-20T14:55:36.104Z,16.90
2018-11-20T14:58:27.536Z,17.83
2018-11-20T15:01:21.504Z,18.97
2018-11-20T15:04:09.762Z,17.63
2018-11-20T15:07:14.141Z,22.17
2018-11-20T15:10:15.793Z,20.20
2018-11-20T15:13:02.263Z,14.63
2018-11-20T15:15:56.244Z,19.13
2018-11-20T15:18:32.639Z,19.43
2018-11-20T15:21:23.666Z,18.73
2018-11-20T15:24:26.745Z,19.10
2018-11-20T15:27:18.288Z,19.83
2018-11-20T15:29:57.397Z,22.77
2018-11-20T15:32:43.412Z,21.47
2018-11-20T15:35:40.549Z,19.10
2018-11-20T15:38:27.097Z,23.23
2018-11-20T15:41:13.907Z,22.37
2018-11-20T15:44:05.080Z,21.40
2018-11-20T15:47:02.456Z,25.67
2018-11-20T15:49:41.348Z,27.40
2018-11-20T15:52:26.881Z,23.43
2018-11-20T15:55:16.514Z,25.23
2018-11-20T15:58:01.438Z,23.40
2018-11-20T16:00:48.088Z,26.20
2018-11-20T16:03:34.891Z,22.27
2018-11-20T16:06:14.638Z,22.50
2018-11-20T16:09:01.194Z,24.70
2018-11-20T16:11:48.001Z,25.33
2018-11-20T16:14:33.552Z,26.40
2018-11-20T16:17:31.686Z,26.57
2018-11-20T16:20:18.367Z,25.10
2018-11-20T16:23:06.825Z,25.23
2018-11-20T16:25:53.602Z,28.20
2018-11-20T16:28:40.554Z,27.67
2018-11-20T16:31:27.193Z,23.90
2018-11-20T16:34:13.975Z,28.13
2018-11-20T16:37:02.172Z,24.73
2018-11-20T16:39:49.047Z,26.70
2018-11-20T16:42:42.864Z,28.40
2018-11-20T16:45:34.834Z,27.10
2018-11-20T16:48:38.684Z,29.23
2018-11-20T16:51:22.291Z,30.30
2018-11-20T16:54:09.229Z,28.43
2018-11-20T16:56:56.163Z,28.53
2018-11-20T16:59:44.340Z,34.53
2018-11-20T17:02:47.644Z,33.33
2018-11-20T17:05:34.121Z,34.17
2018-11-20T17:08:14.634Z,35.37
2018-11-20T17:11:09.852Z,47.73
2018-11-20T17:13:51.303Z,35.47
2018-11-20T17:16:48.393Z,40.43
2018-11-20T17:19:33.436Z,35.73
2018-11-20T17:22:36.720Z,39.63
2018-11-20T17:25:33.195Z,41.47
2018-11-20T17:28:36.569Z,38.53
2018-11-20T17:31:25.061Z,51.93
2018-11-20T17:34:11.626Z,58.67
2018-11-20T17:37:03.004Z,51.50
2018-11-20T17:39:53.986Z,48.97
2018-11-20T17:42:42.110Z,50.27
2018-11-20T17:45:48.351Z,48.40
2018-11-20T17:48:48.638Z,46.77
2018-11-20T17:51:35.546Z,44.73
2018-11-20T17:54:35.688Z,45.77
2018-11-20T17:57:26.605Z,53.30
2018-11-20T18:00:13.261Z,48.47
2018-11-20T18:03:12.758Z,53.33
2018-11-20T18:06:01.780Z,48.17
2018-11-20T18:09:04.701Z,50.07
2018-11-20T18:11:51.777Z,49.73
2018-11-20T18:14:38.948Z,50.73
2018-11-20T18:17:25.757Z,49.13
2018-11-20T18:20:14.166Z,49.63
2018-11-20T18:23:07.805Z,51.17
2018-11-20T18:26:05.078Z,54.53
2018-11-20T18:28:55.914Z,49.73
2018-11-20T18:31:53.393Z,53.17
2018-11-20T18:34:44.028Z,53.43
2018-11-20T18:37:24.266Z,58.03
2018-11-20T18:40:11.067Z,55.97
2018-11-20T18:42:56.789Z,52.87
2018-11-20T18:45:45.019Z,55.13
2018-11-20T18:48:31.677Z,52.50
2018-11-20T18:51:31.956Z,64.00
2018-11-20T18:54:38.290Z,65.07
2018-11-20T18:57:25.157Z,52.97
2018-11-20T19:00:15.956Z,56.73
2018-11-20T19:03:02.575Z,47.60
2018-11-20T19:05:56.343Z,50.90
2018-11-20T19:08:40.930Z,50.07
2018-11-20T19:11:47.291Z,49.37
2018-11-20T19:14:34.200Z,50.43
2018-11-20T19:17:21.042Z,56.30
2018-11-20T19:20:21.168Z,51.43
2018-11-20T19:23:08.010Z,55.07
2018-11-20T19:25:51.975Z,50.97
2018-11-20T19:28:48.244Z,52.33
2018-11-20T19:31:41.170Z,54.13
2018-11-20T19:34:20.958Z,51.90
2018-11-20T19:37:14.963Z,51.37
2018-11-20T19:40:03.121Z,52.07
2018-11-20T19:42:49.644Z,55.23
2018-11-20T19:45:49.905Z,54.97
2018-11-20T19:48:49.560Z,55.50
2018-11-20T19:51:46.444Z,53.23
2018-11-20T19:54:36.657Z,55.90
2018-11-20T19:57:23.643Z,49.17
2018-11-20T20:00:14.679Z,50.00
2018-11-20T20:03:21.272Z,46.63
2018-11-20T20:06:24.241Z,50.80
2018-11-20T20:09:11.015Z,48.00
2018-11-20T20:11:59.428Z,49.57
2018-11-20T20:14:50.297Z,51.60
2018-11-20T20:17:36.933Z,52.07
2018-11-20T20:20:18.288Z,51.70
2018-11-20T20:23:04.624Z,54.13
2018-11-20T20:25:41.639Z,59.57
2018-11-20T20:28:44.658Z,54.07
2018-11-20T20:31:35.079Z,52.17
2018-11-20T20:34:21.553Z,48.97
2018-11-20T20:37:10.610Z,56.07
2018-11-20T20:39:50.545Z,56.47
2018-11-20T20:42:36.854Z,50.00
2018-11-20T20:45:31.866Z,49.67
2018-11-20T20:48:18.432Z,46.17
2018-11-20T20:51:06.590Z,52.40
2018-11-20T20:53:53.176Z,53.47
2018-11-20T20:56:39.583Z,53.67
2018-11-20T20:59:20.501Z,53.60
2018-11-20T21:02:11.335Z,53.40
2018-11-20T21:05:00.677Z,52.83
2018-11-20T21:07:43.258Z,53.87
2018-11-20T21:10:31.820Z,56.93
2018-11-20T21:13:25.805Z,53.07
2018-11-20T21:16:12.518Z,49.63
2018-11-20T21:19:15.719Z,51.30
2018-11-20T21:21:53.775Z,49.80
2018-11-20T21:24:44.551Z,52.57
2018-11-20T21:27:38.656Z,51.87
2018-11-20T21:30:27.220Z,59.27
2018-11-20T21:33:03.710Z,49.70
2018-11-20T21:36:03.890Z,50.90
2018-11-20T21:39:03.725Z,50.23
2018-11-20T21:41:50.427Z,52.70
2018-11-20T21:44:56.763Z,53.03
2018-11-20T21:48:00.049Z,49.57
2018-11-20T21:50:50.813Z,51.23
2018-11-20T21:53:28.719Z,52.13
2018-11-20T21:56:16.945Z,54.77
2018-11-20T21:59:05.495Z,53.60
2018-11-20T22:01:48.905Z,53.40
2018-11-20T22:04:35.476Z,52.67
2018-11-20T22:07:29.711Z,49.20
2018-11-20T22:10:20.947Z,48.43
2018-11-20T22:13:18.309Z,50.80
2018-11-20T22:15:58.620Z,51.70
2018-11-20T22:18:46.827Z,48.83
2018-11-20T22:21:33.648Z,54.47
2018-11-20T22:24:22.355Z,50.90
2018-11-20T22:27:09.251Z,46.40
2018-11-20T22:30:00.218Z,50.50
2018-11-20T22:32:51.085Z,46.67
2018-11-20T22:35:37.895Z,47.17
2018-11-20T22:38:27.393Z,46.10
2018-11-20T22:41:28.108Z,46.30
2018-11-20T22:44:27.801Z,47.13
2018-11-20T22:47:14.744Z,50.70
2018-11-20T22:50:02.892Z,49.93
2018-11-20T22:52:59.739Z,50.03
2018-11-20T22:55:59.708Z,46.30
2018-11-20T22:58:47.886Z,47.97
2018-11-20T23:01:34.495Z,46.70
2018-11-20T23:04:19.210Z,52.23
2018-11-20T23:07:13.348Z,52.97
2018-11-20T23:09:42.576Z,54.10
2018-11-20T23:12:11.568Z,46.53
2018-11-20T23:14:40.625Z,53.37
2018-11-20T23:17:09.593Z,50.37
2018-11-20T23:19:38.674Z,46.30
2018-11-20T23:22:07.675Z,54.07
2018-11-20T23:24:36.675Z,47.07
2018-11-20T23:27:06.205Z,53.47
2018-11-20T23:29:35.191Z,49.43
2018-11-20T23:32:04.189Z,44.50
2018-11-20T23:34:33.169Z,45.87
2018-11-20T23:37:02.179Z,52.70
2018-11-20T23:39:31.152Z,47.87
2018-11-20T23:42:00.177Z,54.33
2018-11-20T23:44:29.224Z,46.23
2018-11-20T23:46:58.212Z,46.40
2018-11-20T23:49:27.242Z,49.70
2018-11-20T23:51:56.224Z,51.07
2018-11-20T23:54:25.266Z,51.00
2018-11-20T23:56:54.299Z,48.57
2018-11-20T23:59:23.333Z,55.90
